Alameda, New Mexico
Current Conditions -  °F | °C
As of 12:15 AM on Saturday 20 Dec 2014 (Local Time) from KAEG Reporting Station
Clear Clear  
Wind Chill: 21°   Ceiling: Unl
Heat Index: 26°   Visibility: 10mi
Dew Point: 22°   Wind: 5mph
Humidity: 83%   Direction: 290°WNW
Pressure: 30.19"   Gusts: NA
Location:  35.1991°N, 106.662°W
Report Text: KAEG 200715Z AUTO 29004KT 10SM CLR M03/M06 A3019 RMK AO2 T10321057
Loading
Personal Weather Stations






























Interactive Weather Map New forecast layout! Learn more

10-Day Weather Forecast

Advertisements
Track Severe Weather on mobile